Time;durP1;ratioP1;P1;durP2;ratioP2;P2;SDS_P1;SDS_P2;PMS_P1;PMS_P2;Temp;Humidity;BMP_temperature;BMP_pressure;BME280_temperature;BME280_humidity;BME280_pressure;Samples;Min_cycle;Max_cycle;Signal;HPM_P1;HPM_P2
2023/05/01 00:00:08;;;;;;;339.10;148.83;;;;;;;13.79;88.86;99498.59;343624;28;1303;-76
2023/05/01 00:00:19;;;;;;;339.48;148.55;;;;;;;13.79;88.62;99503.00;345918;28;1311;-76
2023/05/01 00:00:29;;;;;;;342.43;150.83;;;;;;;13.79;88.60;99503.84;345857;28;1319;-76
2023/05/01 00:00:40;;;;;;;343.38;151.25;;;;;;;13.81;88.54;99506.41;345767;28;1922;-76
2023/05/01 00:00:51;;;;;;;343.67;151.82;;;;;;;13.79;88.43;99503.00;345826;28;1232;-76
2023/05/01 00:01:04;;;;;;;342.77;149.98;;;;;;;13.80;88.42;99502.06;344761;28;840;-76
2023/05/01 00:01:15;;;;;;;342.73;148.80;;;;;;;13.79;89.13;99498.59;340679;29;902;-76
2023/05/01 00:01:25;;;;;;;341.38;146.77;;;;;;;13.80;88.80;99499.44;340003;28;1083;-76
2023/05/01 00:01:36;;;;;;;342.17;146.87;;;;;;;13.81;88.89;99504.63;338238;29;914;-76
2023/05/01 00:01:46;;;;;;;341.10;148.38;;;;;;;13.77;89.31;99489.09;341838;28;1442;-76
2023/05/01 00:01:57;;;;;;;346.83;151.03;;;;;;;13.82;89.53;99502.84;341891;28;1330;-76
2023/05/01 00:02:07;;;;;;;347.60;150.15;;;;;;;13.81;88.99;99495.88;339177;29;1444;-76
2023/05/01 00:02:17;;;;;;;347.93;149.57;;;;;;;13.82;89.09;99498.44;340688;29;1188;-76
2023/05/01 00:02:29;;;;;;;341.20;147.57;;;;;;;13.81;89.34;99501.16;341869;28;906;-76
2023/05/01 00:02:39;;;;;;;339.23;148.38;;;;;;;13.80;89.50;99497.66;342422;28;1469;-76
2023/05/01 00:02:50;;;;;;;339.00;148.23;;;;;;;13.83;89.77;99500.13;337749;29;1451;-76
2023/05/01 00:03:00;;;;;;;339.63;148.80;;;;;;;13.81;89.89;99493.25;334301;29;795;-76
2023/05/01 00:03:13;;;;;;;339.95;146.85;;;;;;;13.83;89.60;99499.28;334855;29;1286;-76
2023/05/01 00:03:23;;;;;;;341.55;146.18;;;;;;;13.83;89.80;99501.91;334680;29;1415;-75
2023/05/01 00:03:33;;;;;;;341.30;148.53;;;;;;;13.83;89.02;99499.28;337237;29;1481;-76
2023/05/01 00:03:44;;;;;;;341.05;150.88;;;;;;;13.82;89.06;99502.84;337755;29;1917;-76
2023/05/01 00:03:54;;;;;;;340.80;151.50;;;;;;;13.81;89.28;99501.16;336653;29;1445;-76
2023/05/01 00:04:05;;;;;;;338.55;148.02;;;;;;;13.81;89.43;99490.63;336868;29;1278;-76
2023/05/01 00:04:15;;;;;;;335.67;145.17;;;;;;;13.81;89.28;99496.72;334024;29;1537;-76
2023/05/01 00:04:26;;;;;;;336.55;145.90;;;;;;;13.82;89.49;99492.31;333334;29;1796;-76
2023/05/01 00:04:36;;;;;;;338.63;149.53;;;;;;;13.83;89.08;99496.66;336478;29;1577;-76
2023/05/01 00:04:47;;;;;;;338.38;149.77;;;;;;;13.83;89.42;99501.91;332897;29;1313;-76
2023/05/01 00:04:57;;;;;;;339.13;150.13;;;;;;;13.82;88.71;99492.31;335850;29;1219;-76
2023/05/01 00:05:08;;;;;;;342.67;149.90;;;;;;;13.80;88.72;99494.19;330808;29;2904;-76
2023/05/01 00:05:18;;;;;;;341.98;149.32;;;;;;;13.81;88.63;99498.50;325459;30;2273;-76
2023/05/01 00:05:29;;;;;;;340.60;150.60;;;;;;;13.78;88.25;99490.78;325129;29;1841;-76
2023/05/01 00:05:39;;;;;;;337.90;148.10;;;;;;;13.79;88.23;99492.50;325565;30;1654;-75
2023/05/01 00:05:50;;;;;;;338.53;149.60;;;;;;;13.79;88.30;99487.22;326721;30;1209;-75
2023/05/01 00:06:01;;;;;;;338.73;147.13;;;;;;;13.77;88.46;99494.34;321935;30;1194;-76
2023/05/01 00:06:12;;;;;;;340.55;148.80;;;;;;;13.79;89.01;99489.88;320742;30;1638;-76
2023/05/01 00:06:22;;;;;;;339.67;146.48;;;;;;;13.78;89.28;99494.28;321324;30;1554;-75
2023/05/01 00:06:33;;;;;;;336.63;144.70;;;;;;;13.81;89.50;99495.88;320789;30;791;-76
2023/05/01 00:06:43;;;;;;;336.38;144.35;;;;;;;13.81;89.47;99491.47;318555;30;1970;-76
2023/05/01 00:06:53;;;;;;;338.73;146.17;;;;;;;13.80;89.75;99488.94;318487;30;2025;-76
2023/05/01 00:07:04;;;;;;;341.63;148.63;;;;;;;13.82;89.69;99492.31;318525;31;858;-76
2023/05/01 00:07:15;;;;;;;338.08;146.70;;;;;;;13.82;89.95;99493.16;321093;30;2088;-76
2023/05/01 00:07:28;;;;;;;338.30;147.02;;;;;;;13.84;89.59;99485.19;316702;31;2398;-76
2023/05/01 00:07:38;;;;;;;339.15;148.20;;;;;;;13.85;89.52;99489.53;314815;31;2597;-76
2023/05/01 00:07:49;;;;;;;347.63;152.87;;;;;;;13.86;89.08;99499.09;312752;31;1188;-76
2023/05/01 00:07:59;;;;;;;347.42;152.93;;;;;;;13.83;89.16;99494.03;314597;31;2597;-76
2023/05/01 00:08:10;;;;;;;347.55;154.02;;;;;;;13.82;88.75;99487.06;314390;31;1611;-76
2023/05/01 00:08:21;;;;;;;343.90;153.60;;;;;;;13.83;88.52;99494.88;315001;31;1417;-76
2023/05/01 00:08:31;;;;;;;343.25;151.65;;;;;;;13.83;88.79;99488.75;316176;31;1262;-76
2023/05/01 00:08:41;;;;;;;343.00;151.50;;;;;;;13.84;88.89;99490.44;314113;31;2633;-75
2023/05/01 00:08:52;;;;;;;339.08;148.27;;;;;;;13.82;88.85;99484.44;313990;31;2583;-76
2023/05/01 00:09:02;;;;;;;341.33;150.93;;;;;;;13.84;88.88;99485.19;316205;31;936;-76
2023/05/01 00:09:13;;;;;;;343.60;152.52;;;;;;;13.84;89.00;99488.66;314297;31;3208;-76
2023/05/01 00:09:26;;;;;;;345.90;154.37;;;;;;;13.86;89.13;99483.31;308896;31;3090;-76
2023/05/01 00:09:36;;;;;;;345.45;152.70;;;;;;;13.86;89.33;99488.59;304124;31;3395;-76
2023/05/01 00:09:47;;;;;;;342.87;150.50;;;;;;;13.86;89.46;99489.41;305048;32;1216;-76
2023/05/01 00:09:57;;;;;;;341.13;150.67;;;;;;;13.86;89.60;99483.31;305425;32;3391;-76
2023/05/01 00:10:08;;;;;;;340.42;149.57;;;;;;;13.86;89.57;99486.78;304227;32;3216;-76
2023/05/01 00:10:19;;;;;;;341.87;148.00;;;;;;;13.84;89.58;99485.19;304912;32;1288;-76
2023/05/01 00:10:30;;;;;;;342.75;148.23;;;;;;;13.84;89.64;99485.19;306520;32;2160;-76
2023/05/01 00:10:40;;;;;;;343.35;149.43;;;;;;;13.86;89.75;99484.13;304122;32;2223;-76
2023/05/01 00:10:51;;;;;;;342.55;150.35;;;;;;;13.85;89.47;99481.63;303557;32;3225;-76
2023/05/01 00:11:02;;;;;;;343.67;150.00;;;;;;;13.85;89.64;99484.25;304204;32;824;-76
2023/05/01 00:11:13;;;;;;;343.25;150.25;;;;;;;13.85;89.46;99484.25;302202;32;4609;-76
2023/05/01 00:11:23;;;;;;;341.77;149.07;;;;;;;13.87;89.35;99477.09;300286;32;4580;-75
2023/05/01 00:11:36;;;;;;;342.33;149.43;;;;;;;13.86;89.45;99484.13;300091;32;874;-75
2023/05/01 00:11:46;;;;;;;341.60;149.77;;;;;;;13.87;89.14;99487.63;298957;33;1360;-75
2023/05/01 00:11:56;;;;;;;341.90;149.93;;;;;;;13.86;89.05;99494.66;296019;33;4857;-76
2023/05/01 00:12:07;;;;;;;343.42;151.80;;;;;;;13.88;89.24;99476.16;294966;32;4450;-76
2023/05/01 00:12:17;;;;;;;340.80;148.83;;;;;;;13.88;89.89;99481.41;295851;33;1193;-75
2023/05/01 00:12:28;;;;;;;342.43;149.77;;;;;;;13.84;89.95;99490.44;295243;33;4278;-76
2023/05/01 00:12:38;;;;;;;343.17;150.40;;;;;;;13.87;90.20;99474.47;293977;33;2744;-75
2023/05/01 00:12:48;;;;;;;343.93;150.77;;;;;;;13.87;89.84;99479.72;293893;33;1263;-75
2023/05/01 00:12:59;;;;;;;341.90;150.77;;;;;;;13.87;89.74;99482.34;295795;33;3571;-75
2023/05/01 00:13:09;;;;;;;341.13;150.27;;;;;;;13.89;89.83;99483.13;296491;32;4893;-75
2023/05/01 00:13:21;;;;;;;340.20;151.90;;;;;;;13.88;90.02;99478.78;298001;33;831;-75
2023/05/01 00:13:32;;;;;;;339.48;152.65;;;;;;;13.89;90.54;99485.75;288282;34;895;-75
2023/05/01 00:13:43;;;;;;;343.42;155.57;;;;;;;13.87;90.68;99480.56;284039;34;6696;-75
2023/05/01 00:13:53;;;;;;;344.63;155.80;;;;;;;13.87;90.21;99479.72;284876;34;6919;-75
2023/05/01 00:14:03;;;;;;;345.50;156.93;;;;;;;13.89;90.26;99483.97;289185;34;922;-76
2023/05/01 00:14:14;;;;;;;343.00;154.60;;;;;;;13.89;90.30;99483.13;286323;34;6915;-76
2023/05/01 00:14:24;;;;;;;345.40;154.17;;;;;;;13.88;90.56;99481.41;282055;34;6413;-76
2023/05/01 00:14:35;;;;;;;344.30;151.57;;;;;;;13.88;89.81;99476.16;279913;35;933;-76
2023/05/01 00:14:45;;;;;;;344.30;151.87;;;;;;;13.88;89.46;99484.91;277208;35;1241;-76
2023/05/01 00:14:55;;;;;;;345.58;157.52;;;;;;;13.90;89.47;99487.44;273665;35;4845;-77
2023/05/01 00:15:06;;;;;;;346.67;160.57;;;;;;;13.90;90.62;99480.41;276591;35;6095;-77
2023/05/01 00:15:17;;;;;;;346.80;159.32;;;;;;;13.89;90.99;99476.06;273716;36;1410;-76
2023/05/01 00:15:27;;;;;;;344.40;153.07;;;;;;;13.91;90.91;99478.63;272202;35;6558;-76
2023/05/01 00:17:12;;;;;;;330.83;142.65;;;;;;;13.91;90.20;99481.25;2500263;27;20375;-75
2023/05/01 00:17:23;;;;;;;336.35;149.80;;;;;;;13.90;89.96;99485.66;352849;28;1199;-76
2023/05/01 00:17:33;;;;;;;336.60;150.17;;;;;;;13.90;90.42;99490.06;351627;28;1971;-76
2023/05/01 00:17:44;;;;;;;334.55;148.85;;;;;;;13.91;90.60;99481.25;347436;28;1274;-76
2023/05/01 00:17:54;;;;;;;333.67;148.37;;;;;;;13.90;90.55;99476.94;345863;28;1314;-76
2023/05/01 00:18:05;;;;;;;334.42;147.52;;;;;;;13.90;90.62;99479.56;346071;28;1254;-76
2023/05/01 00:18:15;;;;;;;338.40;149.47;;;;;;;13.89;90.33;99472.59;345856;28;1201;-76
2023/05/01 00:18:26;;;;;;;340.63;148.98;;;;;;;13.88;90.14;99474.38;350015;28;1243;-76
2023/05/01 00:18:36;;;;;;;342.00;149.17;;;;;;;13.88;90.09;99481.41;347301;28;1532;-76
2023/05/01 00:18:47;;;;;;;342.70;150.77;;;;;;;13.87;90.19;99479.72;348806;28;1492;-76
2023/05/01 00:18:57;;;;;;;343.07;152.43;;;;;;;13.89;90.17;99483.13;349442;28;1460;-76
2023/05/01 00:19:08;;;;;;;344.33;152.18;;;;;;;13.90;90.06;99476.94;351265;28;1446;-76
2023/05/01 00:19:18;;;;;;;344.10;152.67;;;;;;;13.88;90.14;99477.00;351405;28;1369;-76
2023/05/01 00:19:29;;;;;;;343.55;153.70;;;;;;;13.88;90.08;99482.28;350098;28;1341;-76
2023/05/01 00:19:39;;;;;;;343.87;154.17;;;;;;;13.87;90.09;99480.56;350158;28;870;-76
2023/05/01 00:19:51;;;;;;;343.50;153.23;;;;;;;13.90;90.04;99484.81;348878;28;894;-76
2023/05/01 00:20:04;;;;;;;343.63;153.05;;;;;;;13.91;89.93;99481.25;348732;28;1432;-76
2023/05/01 00:20:15;;;;;;;343.05;152.38;;;;;;;13.89;90.04;99475.22;348844;28;860;-76
2023/05/01 00:20:29;;;;;;;343.15;151.85;;;;;;;13.89;89.94;99477.84;346071;28;1203;-76
2023/05/01 00:20:39;;;;;;;338.02;149.10;;;;;;;13.90;90.10;99474.28;345803;28;1554;-76
2023/05/01 00:20:50;;;;;;;338.10;149.97;;;;;;;13.88;89.82;99470.91;346643;28;2018;-75
2023/05/01 00:21:00;;;;;;;337.83;149.35;;;;;;;13.91;90.02;99481.25;348636;28;1378;-76
2023/05/01 00:21:11;;;;;;;337.80;150.07;;;;;;;13.87;89.71;99474.47;345612;28;2003;-75
2023/05/01 00:21:21;;;;;;;335.42;147.23;;;;;;;13.90;89.91;99480.41;349042;28;1834;-75
2023/05/01 00:21:32;;;;;;;334.93;146.10;;;;;;;13.89;90.20;99477.84;348117;28;1318;-75
2023/05/01 00:21:44;;;;;;;334.50;144.63;;;;;;;13.91;90.11;99486.50;347396;28;1338;-75
2023/05/01 00:21:55;;;;;;;336.17;147.38;;;;;;;13.90;90.02;99474.28;348180;28;1730;-75
2023/05/01 00:22:05;;;;;;;338.13;148.30;;;;;;;13.89;90.25;99477.84;346714;28;1847;-75
2023/05/01 00:22:16;;;;;;;339.27;150.07;;;;;;;13.91;90.18;99476.00;345315;28;1285;-75
2023/05/01 00:22:26;;;;;;;339.50;150.82;;;;;;;13.92;90.08;99482.94;344666;28;2629;-75
2023/05/01 00:22:37;;;;;;;338.58;151.60;;;;;;;13.91;90.26;99481.25;342526;28;865;-75
2023/05/01 00:22:47;;;;;;;336.67;150.93;;;;;;;13.91;90.24;99479.47;343401;28;1209;-75
2023/05/01 00:22:57;;;;;;;337.37;150.37;;;;;;;13.89;90.27;99472.59;345895;28;1265;-75
2023/05/01 00:23:08;;;;;;;338.77;151.40;;;;;;;13.89;90.44;99477.84;344853;28;1557;-75
2023/05/01 00:23:18;;;;;;;341.30;152.37;;;;;;;13.89;90.28;99472.59;342124;28;2981;-75
2023/05/01 00:23:29;;;;;;;343.40;152.50;;;;;;;13.90;90.42;99474.28;339009;29;2436;-75
2023/05/01 00:23:39;;;;;;;347.00;154.60;;;;;;;13.89;90.53;99477.84;340632;28;1407;-75
2023/05/01 00:23:50;;;;;;;346.98;154.07;;;;;;;13.90;90.58;99474.28;343628;28;2370;-75
2023/05/01 00:24:00;;;;;;;343.80;153.47;;;;;;;13.89;90.45;99477.84;344488;28;1575;-75
2023/05/01 00:24:10;;;;;;;341.58;149.55;;;;;;;13.88;90.41;99477.00;343029;28;1370;-75
2023/05/01 00:24:21;;;;;;;342.07;149.50;;;;;;;13.88;90.25;99482.28;339312;29;841;-75
2023/05/01 00:24:31;;;;;;;342.48;149.05;;;;;;;13.87;90.55;99475.31;340588;29;1279;-76
2023/05/01 00:24:42;;;;;;;342.60;150.37;;;;;;;13.89;90.58;99473.44;339313;29;857;-76
2023/05/01 00:24:52;;;;;;;341.52;150.52;;;;;;;13.88;90.61;99470.91;340763;28;906;-76
2023/05/01 00:25:03;;;;;;;339.77;150.10;;;;;;;13.88;90.50;99476.16;340725;28;1502;-76
2023/05/01 00:25:13;;;;;;;338.08;151.52;;;;;;;13.88;90.37;99473.53;339291;29;1529;-76
2023/05/01 00:25:24;;;;;;;339.13;150.03;;;;;;;13.88;90.53;99474.38;341324;28;1434;-76
2023/05/01 00:25:34;;;;;;;339.33;148.85;;;;;;;13.88;90.36;99474.38;341704;28;1473;-75
2023/05/01 00:25:44;;;;;;;339.23;147.87;;;;;;;13.87;90.63;99474.47;342089;28;770;-75
2023/05/01 00:25:55;;;;;;;337.95;147.23;;;;;;;13.87;90.83;99475.31;340351;29;1765;-75
2023/05/01 00:26:06;;;;;;;340.23;150.20;;;;;;;13.86;90.46;99470.16;339037;29;1923;-76
2023/05/01 00:26:16;;;;;;;341.00;151.23;;;;;;;13.87;90.72;99474.47;337842;29;1305;-76
2023/05/01 00:26:30;;;;;;;339.40;150.53;;;;;;;13.84;90.54;99474.66;336845;29;1324;-76
2023/05/01 00:26:40;;;;;;;337.85;148.13;;;;;;;13.85;90.32;99474.59;337729;29;1578;-76
2023/05/01 00:26:50;;;;;;;338.20;149.37;;;;;;;13.84;90.51;99466.78;338403;29;1188;-76
2023/05/01 00:27:02;;;;;;;340.73;150.95;;;;;;;13.86;90.51;99478.06;339438;29;1096;-76
2023/05/01 00:27:12;;;;;;;344.10;155.63;;;;;;;13.86;90.37;99472.81;335278;29;1710;-76
2023/05/01 00:27:23;;;;;;;344.25;155.75;;;;;;;13.84;90.56;99472.03;338582;29;1696;-76
2023/05/01 00:27:33;;;;;;;342.20;153.10;;;;;;;13.84;90.27;99475.50;337284;29;3206;-76
2023/05/01 00:27:44;;;;;;;339.75;150.93;;;;;;;13.86;90.67;99467.53;337557;29;2361;-76
2023/05/01 00:27:54;;;;;;;339.67;149.80;;;;;;;13.85;90.36;99476.38;336474;29;2096;-76
2023/05/01 00:28:05;;;;;;;341.73;151.03;;;;;;;13.82;90.37;99472.13;336707;29;2148;-76
2023/05/01 00:28:17;;;;;;;342.90;151.47;;;;;;;13.84;90.22;99469.41;336910;29;865;-76
2023/05/01 00:28:28;;;;;;;344.17;152.65;;;;;;;13.84;90.23;99469.41;333993;29;1317;-76
2023/05/01 00:28:38;;;;;;;340.27;149.77;;;;;;;13.84;90.21;99469.41;337704;29;936;-76
2023/05/01 00:28:49;;;;;;;339.08;148.07;;;;;;;13.86;90.03;99467.53;334862;29;1250;-76
2023/05/01 00:28:59;;;;;;;339.20;148.20;;;;;;;13.86;90.20;99473.63;335616;29;862;-76
2023/05/01 00:29:10;;;;;;;340.93;150.53;;;;;;;13.87;90.27;99472.69;327375;29;1785;-76
2023/05/01 00:29:20;;;;;;;340.80;150.85;;;;;;;13.88;90.07;99466.50;323857;29;1895;-76
2023/05/01 00:29:31;;;;;;;339.27;149.87;;;;;;;13.88;89.77;99476.16;323152;30;1201;-76
2023/05/01 00:29:41;;;;;;;337.00;148.35;;;;;;;13.91;90.25;99470.72;317355;31;1256;-75
2023/05/01 00:29:52;;;;;;;336.33;147.47;;;;;;;13.90;90.24;99469.03;319941;30;2371;-76
2023/05/01 00:30:02;;;;;;;337.77;148.63;;;;;;;13.90;90.10;99467.25;320427;30;2658;-76
2023/05/01 00:30:13;;;;;;;340.43;149.77;;;;;;;13.91;89.88;99476.00;319571;30;1256;-76
2023/05/01 00:30:23;;;;;;;341.27;149.52;;;;;;;13.92;89.79;99472.44;317291;31;2643;-76
2023/05/01 00:30:33;;;;;;;343.17;150.77;;;;;;;13.92;89.41;99470.66;317791;30;2164;-76
2023/05/01 00:30:44;;;;;;;343.35;149.65;;;;;;;13.91;89.84;99470.72;320669;30;1450;-75
2023/05/01 00:30:56;;;;;;;345.13;150.73;;;;;;;13.94;89.68;99470.56;319224;30;1393;-76
2023/05/01 00:31:06;;;;;;;343.30;148.50;;;;;;;13.95;89.45;99474.88;318081;30;2001;-76
2023/05/01 00:31:17;;;;;;;343.42;150.15;;;;;;;13.95;89.40;99472.25;314903;30;2500;-76
2023/05/01 00:31:28;;;;;;;344.60;150.13;;;;;;;13.96;89.25;99473.94;315719;31;1260;-76
2023/05/01 00:31:40;;;;;;;344.57;153.50;;;;;;;13.96;89.23;99474.78;312698;31;2629;-76
2023/05/01 00:31:50;;;;;;;344.80;154.73;;;;;;;13.97;88.82;99471.22;311678;31;3248;-76
2023/05/01 00:32:01;;;;;;;345.73;156.73;;;;;;;13.97;88.91;99473.00;312857;31;879;-76
2023/05/01 00:32:11;;;;;;;346.60;157.40;;;;;;;13.95;89.24;99475.72;308441;32;753;-76
2023/05/01 00:32:21;;;;;;;345.67;155.25;;;;;;;13.94;89.01;99470.56;307995;31;3695;-76
2023/05/01 00:32:33;;;;;;;342.90;152.60;;;;;;;13.96;88.85;99473.94;308029;31;3394;-76
2023/05/01 00:32:43;;;;;;;340.00;147.40;;;;;;;13.97;88.75;99470.38;306750;32;3447;-75
2023/05/01 00:32:54;;;;;;;337.98;146.30;;;;;;;13.92;88.83;99473.28;307250;32;3048;-75
2023/05/01 00:33:04;;;;;;;339.57;148.17;;;;;;;13.95;88.78;99472.25;305958;32;2117;-76
2023/05/01 00:33:15;;;;;;;342.50;150.73;;;;;;;13.97;88.72;99475.66;304937;32;1974;-76
2023/05/01 00:33:25;;;;;;;345.03;152.30;;;;;;;13.97;88.50;99467.75;304221;32;3324;-76
2023/05/01 00:33:35;;;;;;;343.55;149.93;;;;;;;13.98;88.57;99472.06;301383;32;3911;-76
2023/05/01 00:33:46;;;;;;;342.00;150.50;;;;;;;13.98;88.23;99467.66;301053;32;1316;-76
2023/05/01 00:33:56;;;;;;;341.77;150.68;;;;;;;14.00;88.38;99478.09;297755;33;1259;-76
2023/05/01 00:34:07;;;;;;;343.37;150.90;;;;;;;13.98;88.16;99472.94;298441;32;5446;-76
2023/05/01 00:34:17;;;;;;;342.83;150.23;;;;;;;14.01;88.03;99474.53;297202;32;5332;-76
2023/05/01 00:34:29;;;;;;;344.07;152.43;;;;;;;14.02;87.75;99473.59;295874;33;1578;-76
2023/05/01 00:34:39;;;;;;;342.15;153.35;;;;;;;14.04;87.77;99478.78;295761;33;4815;-76
2023/05/01 00:34:50;;;;;;;343.10;152.20;;;;;;;14.01;87.66;99466.66;298417;32;4757;-75
2023/05/01 00:35:00;;;;;;;343.05;150.73;;;;;;;14.03;87.85;99477.09;297901;33;1213;-75
2023/05/01 00:35:11;;;;;;;343.93;151.63;;;;;;;14.04;87.97;99470.88;292829;33;3708;-75
2023/05/01 00:35:21;;;;;;;343.88;151.57;;;;;;;14.01;87.86;99471.91;294598;33;3257;-75
2023/05/01 00:35:31;;;;;;;345.27;153.47;;;;;;;14.02;88.16;99470.97;297057;33;5092;-75
2023/05/01 00:35:45;;;;;;;346.77;155.73;;;;;;;14.02;88.11;99468.34;293012;33;1308;-75
2023/05/01 00:35:55;;;;;;;348.05;155.82;;;;;;;14.02;88.27;99472.75;294290;33;5340;-75
2023/05/01 00:36:06;;;;;;;348.92;154.48;;;;;;;14.00;88.05;99470.22;291527;33;7167;-75
2023/05/01 00:36:16;;;;;;;347.80;155.13;;;;;;;14.03;88.55;99471.81;290096;33;7319;-75
2023/05/01 00:36:26;;;;;;;344.07;154.83;;;;;;;14.01;88.55;99481.59;292055;33;964;-75
2023/05/01 00:36:37;;;;;;;344.20;155.65;;;;;;;14.01;88.73;99471.91;292122;33;7092;-76
2023/05/01 00:36:47;;;;;;;347.47;156.87;;;;;;;14.02;88.64;99478.00;292143;33;6599;-76
2023/05/01 00:36:58;;;;;;;349.02;156.45;;;;;;;14.03;88.71;99479.72;290887;33;1148;-76
2023/05/01 00:37:08;;;;;;;349.00;155.43;;;;;;;14.01;88.70;99474.53;290175;33;6942;-75
2023/05/01 00:37:18;;;;;;;346.30;153.52;;;;;;;14.02;88.68;99476.22;288112;33;5249;-75
2023/05/01 00:37:29;;;;;;;342.87;152.63;;;;;;;14.01;88.65;99479.81;288147;34;908;-75
2023/05/01 00:37:39;;;;;;;342.67;151.17;;;;;;;14.00;88.66;99478.09;289755;33;4950;-75
2023/05/01 00:37:50;;;;;;;343.67;150.85;;;;;;;13.99;88.89;99479.88;290016;33;6607;-75
2023/05/01 00:38:00;;;;;;;343.30;149.90;;;;;;;14.01;88.59;99476.31;288090;34;1245;-75
2023/05/01 00:38:11;;;;;;;344.75;152.18;;;;;;;14.01;88.79;99473.69;286283;34;7557;-75
2023/05/01 00:38:23;;;;;;;343.03;151.70;;;;;;;14.01;88.63;99468.44;285590;34;9943;-76
2023/05/01 00:38:33;;;;;;;342.67;151.40;;;;;;;14.00;88.52;99470.22;286244;34;10072;-76
2023/05/01 00:38:45;;;;;;;339.90;149.68;;;;;;;14.01;88.51;99466.66;289204;34;785;-76
2023/05/01 00:38:55;;;;;;;340.18;148.24;;;;;;;14.00;89.11;99475.47;283267;34;9394;-76
2023/05/01 00:40:42;;;;;;;331.44;139.85;;;;;;;14.01;88.55;99481.59;2497341;27;20266;-75
2023/05/01 00:40:53;;;;;;;336.33;143.77;;;;;;;14.02;88.60;99473.59;352816;28;1390;-75
2023/05/01 00:41:03;;;;;;;338.17;145.40;;;;;;;14.00;88.53;99470.22;350033;28;1338;-75
2023/05/01 00:41:14;;;;;;;339.83;147.23;;;;;;;13.99;89.11;99473.78;350146;28;1238;-75
2023/05/01 00:41:24;;;;;;;342.00;149.43;;;;;;;13.99;88.85;99473.78;351492;28;1195;-75
2023/05/01 00:41:35;;;;;;;340.08;149.00;;;;;;;14.00;88.83;99470.22;348869;28;1145;-76
2023/05/01 00:41:45;;;;;;;339.97;152.37;;;;;;;13.99;88.56;99473.78;346943;28;1871;-76
2023/05/01 00:41:56;;;;;;;337.93;152.37;;;;;;;13.99;88.57;99479.03;345230;28;3261;-76
2023/05/01 00:42:06;;;;;;;339.35;152.27;;;;;;;14.00;88.79;99472.84;346011;28;925;-75
2023/05/01 00:42:17;;;;;;;336.95;148.85;;;;;;;13.99;89.09;99485.16;346369;28;1210;-75
2023/05/01 00:42:27;;;;;;;337.33;149.40;;;;;;;14.01;88.92;99473.69;348750;28;871;-76
2023/05/01 00:42:38;;;;;;;338.25;149.00;;;;;;;14.00;88.98;99475.47;345582;28;1490;-76
2023/05/01 00:42:49;;;;;;;340.83;149.05;;;;;;;13.99;89.32;99474.63;346589;28;1370;-76
2023/05/01 00:42:59;;;;;;;341.17;147.57;;;;;;;13.98;89.08;99472.94;348916;28;894;-76
2023/05/01 00:43:10;;;;;;;338.77;147.60;;;;;;;13.97;89.21;99471.22;351393;28;1184;-76
2023/05/01 00:43:21;;;;;;;338.35;148.05;;;;;;;13.96;89.33;99469.53;350092;28;1612;-76
2023/05/01 00:43:31;;;;;;;338.77;148.13;;;;;;;13.93;89.82;99474.97;348650;28;1199;-76
2023/05/01 00:43:42;;;;;;;338.87;147.20;;;;;;;13.93;90.01;99476.75;349676;28;1213;-76
2023/05/01 00:43:52;;;;;;;340.40;147.25;;;;;;;13.93;90.13;99471.50;348718;28;860;-76
2023/05/01 00:44:03;;;;;;;341.43;148.87;;;;;;;13.93;90.04;99479.38;347353;28;871;-76
2023/05/01 00:44:13;;;;;;;343.10;149.93;;;;;;;13.92;90.23;99469.78;347170;28;1327;-76
2023/05/01 00:44:24;;;;;;;342.07;150.57;;;;;;;13.92;90.28;99469.78;344683;28;855;-76
2023/05/01 00:44:34;;;;;;;339.48;148.85;;;;;;;13.88;90.06;99470.91;345741;28;1412;-76
2023/05/01 00:44:45;;;;;;;340.13;150.37;;;;;;;13.87;89.78;99475.31;347291;28;979;-76
2023/05/01 00:44:55;;;;;;;337.98;147.43;;;;;;;13.86;90.10;99470.97;347383;28;869;-76
2023/05/01 00:45:06;;;;;;;338.90;147.33;;;;;;;13.86;90.21;99467.53;348345;28;1028;-76
2023/05/01 00:45:17;;;;;;;338.38;145.85;;;;;;;13.87;90.08;99471.84;344451;28;1735;-76
2023/05/01 00:45:27;;;;;;;341.10;147.85;;;;;;;13.88;90.09;99476.16;345881;28;1217;-76
2023/05/01 00:45:38;;;;;;;342.50;148.17;;;;;;;13.88;90.36;99469.13;344626;28;1205;-76
2023/05/01 00:45:48;;;;;;;341.65;147.43;;;;;;;13.90;90.27;99474.28;344726;28;825;-76
2023/05/01 00:45:59;;;;;;;341.00;146.40;;;;;;;13.89;90.23;99475.22;343276;28;1000;-75
2023/05/01 00:46:10;;;;;;;341.27;149.03;;;;;;;13.88;90.25;99471.75;343227;28;1365;-75
2023/05/01 00:46:20;;;;;;;340.20;148.65;;;;;;;13.88;90.30;99471.75;342712;28;1292;-75
2023/05/01 00:46:31;;;;;;;342.52;151.82;;;;;;;13.88;90.25;99476.16;340847;28;1226;-75
2023/05/01 00:46:42;;;;;;;341.30;151.50;;;;;;;13.88;90.43;99479.63;338122;29;838;-75
2023/05/01 00:46:53;;;;;;;343.52;152.57;;;;;;;13.85;90.47;99465.84;340416;29;1317;-75
2023/05/01 00:47:03;;;;;;;345.67;151.50;;;;;;;13.89;90.28;99469.97;340516;28;1195;-76
2023/05/01 00:47:13;;;;;;;344.63;149.57;;;;;;;13.90;90.28;99479.56;340741;28;1379;-75
2023/05/01 00:47:24;;;;;;;342.40;147.63;;;;;;;13.89;90.32;99472.59;340574;29;1391;-75
2023/05/01 00:47:34;;;;;;;338.40;145.80;;;;;;;13.89;90.62;99477.84;338783;29;1178;-75
2023/05/01 00:47:45;;;;;;;340.27;147.68;;;;;;;13.90;90.70;99474.28;341971;28;1292;-75
2023/05/01 00:47:56;;;;;;;336.98;147.23;;;;;;;13.89;90.28;99475.22;341950;28;1165;-75
2023/05/01 00:48:06;;;;;;;336.27;145.37;;;;;;;13.88;90.41;99471.75;336816;29;1289;-75
2023/05/01 00:48:16;;;;;;;333.42;143.07;;;;;;;13.90;90.09;99474.28;336497;29;1101;-75
2023/05/01 00:48:27;;;;;;;337.27;145.77;;;;;;;13.90;90.28;99477.78;336629;29;1470;-75
2023/05/01 00:48:37;;;;;;;338.85;149.77;;;;;;;13.89;90.09;99473.44;337628;29;1353;-76
2023/05/01 00:48:48;;;;;;;342.17;151.47;;;;;;;13.90;90.17;99475.16;336234;28;1454;-76
2023/05/01 00:48:58;;;;;;;341.38;151.40;;;;;;;13.91;90.01;99481.25;337793;29;1546;-76
2023/05/01 00:49:08;;;;;;;341.90;152.77;;;;;;;13.90;89.94;99475.16;334121;29;1467;-76
2023/05/01 00:49:19;;;;;;;338.70;151.30;;;;;;;13.92;90.22;99477.69;332588;29;1760;-75
2023/05/01 00:49:30;;;;;;;341.93;150.07;;;;;;;13.90;90.06;99469.03;331727;29;1969;-75
2023/05/01 00:49:43;;;;;;;341.77;149.15;;;;;;;13.93;89.86;99474.13;338021;29;1338;-75
2023/05/01 00:49:54;;;;;;;340.67;148.35;;;;;;;13.90;89.83;99475.16;334160;29;1081;-75
2023/05/01 00:50:05;;;;;;;337.33;147.35;;;;;;;13.90;89.96;99474.28;331570;29;1430;-76
2023/05/01 00:50:15;;;;;;;339.25;146.43;;;;;;;13.94;89.76;99475.81;333051;29;1295;-76
2023/05/01 00:50:25;;;;;;;342.83;149.50;;;;;;;13.92;89.36;99475.06;332711;29;1217;-76
2023/05/01 00:50:36;;;;;;;344.58;151.27;;;;;;;13.93;89.53;99482.00;327607;29;1547;-76
2023/05/01 00:50:46;;;;;;;342.97;151.73;;;;;;;13.93;89.28;99474.97;325372;30;3680;-75
2023/05/01 00:50:57;;;;;;;339.88;149.43;;;;;;;13.95;89.09;99477.50;322927;30;2409;-75
2023/05/01 00:51:07;;;;;;;339.53;148.63;;;;;;;13.94;89.08;99475.81;322685;30;1951;-76
2023/05/01 00:51:17;;;;;;;340.15;148.23;;;;;;;13.97;89.04;99473.00;323707;30;2016;-76
2023/05/01 00:51:28;;;;;;;341.10;149.73;;;;;;;13.97;88.89;99475.66;324333;30;1605;-76
2023/05/01 00:51:38;;;;;;;339.97;150.47;;;;;;;13.94;88.97;99470.56;318463;31;1354;-75
2023/05/01 00:51:49;;;;;;;339.27;150.10;;;;;;;13.96;88.80;99474.78;319187;30;1626;-75
2023/05/01 00:52:00;;;;;;;343.17;150.57;;;;;;;13.95;88.83;99472.25;321499;30;1356;-76
2023/05/01 00:52:11;;;;;;;344.23;150.38;;;;;;;13.96;89.03;99482.69;320405;30;1565;-76
2023/05/01 00:52:22;;;;;;;343.63;149.90;;;;;;;13.96;88.79;99474.78;319393;30;1244;-76